sensor_id;sensor_type;location;lat;lon;timestamp;pressure;altitude;pressure_sealevel;temperature;humidity
58967;BME280;44744;51.894;5.080;2024-01-15T00:01:34;100521.38;;;1.09;100.00
58967;BME280;44744;51.894;5.080;2024-01-15T00:06:34;100512.26;;;1.04;100.00
58967;BME280;44744;51.894;5.080;2024-01-15T00:11:35;100512.84;;;1.01;100.00
58967;BME280;44744;51.894;5.080;2024-01-15T00:16:35;100506.94;;;1.00;100.00
58967;BME280;44744;51.894;5.080;2024-01-15T00:21:35;100503.44;;;1.00;100.00
58967;BME280;44744;51.894;5.080;2024-01-15T00:26:36;100504.39;;;0.97;100.00
58967;BME280;44744;51.894;5.080;2024-01-15T00:31:37;100502.86;;;0.95;100.00
58967;BME280;44744;51.894;5.080;2024-01-15T00:36:37;100491.58;;;0.93;100.00
58967;BME280;44744;51.894;5.080;2024-01-15T00:41:37;100480.71;;;0.88;100.00
58967;BME280;44744;51.894;5.080;2024-01-15T00:46:45;100471.11;;;0.81;100.00
58967;BME280;44744;51.894;5.080;2024-01-15T00:51:47;100463.90;;;0.76;100.00
58967;BME280;44744;51.894;5.080;2024-01-15T00:56:48;100459.91;;;0.75;100.00
58967;BME280;44744;51.894;5.080;2024-01-15T01:01:48;100455.86;;;0.78;100.00
58967;BME280;44744;51.894;5.080;2024-01-15T01:06:48;100459.67;;;0.79;100.00
58967;BME280;44744;51.894;5.080;2024-01-15T01:11:49;100454.34;;;0.76;100.00
58967;BME280;44744;51.894;5.080;2024-01-15T01:16:49;100453.42;;;0.69;100.00
58967;BME280;44744;51.894;5.080;2024-01-15T01:21:49;100457.20;;;0.63;100.00
58967;BME280;44744;51.894;5.080;2024-01-15T01:26:51;100451.89;;;0.59;100.00
58967;BME280;44744;51.894;5.080;2024-01-15T01:31:51;100450.67;;;0.59;100.00
58967;BME280;44744;51.894;5.080;2024-01-15T01:36:52;100448.23;;;0.59;99.89
58967;BME280;44744;51.894;5.080;2024-01-15T01:41:52;100447.19;;;0.59;99.52
58967;BME280;44744;51.894;5.080;2024-01-15T01:46:53;100444.42;;;0.58;99.30
58967;BME280;44744;51.894;5.080;2024-01-15T01:51:57;100450.55;;;0.56;99.28
58967;BME280;44744;51.894;5.080;2024-01-15T01:56:57;100445.42;;;0.51;99.12
58967;BME280;44744;51.894;5.080;2024-01-15T02:02:00;100440.64;;;0.46;98.83
58967;BME280;44744;51.894;5.080;2024-01-15T02:07:01;100447.34;;;0.43;98.44
58967;BME280;44744;51.894;5.080;2024-01-15T02:12:01;100437.70;;;0.46;98.29
58967;BME280;44744;51.894;5.080;2024-01-15T02:17:02;100438.31;;;0.50;97.93
58967;BME280;44744;51.894;5.080;2024-01-15T02:22:03;100437.55;;;0.53;97.57
58967;BME280;44744;51.894;5.080;2024-01-15T02:27:04;100441.54;;;0.54;97.19
58967;BME280;44744;51.894;5.080;2024-01-15T02:32:05;100435.26;;;0.55;96.92
58967;BME280;44744;51.894;5.080;2024-01-15T02:37:06;100435.30;;;0.54;96.57
58967;BME280;44744;51.894;5.080;2024-01-15T02:42:06;100434.21;;;0.55;96.78
58967;BME280;44744;51.894;5.080;2024-01-15T02:47:07;100433.30;;;0.57;97.11
58967;BME280;44744;51.894;5.080;2024-01-15T02:52:07;100432.32;;;0.54;97.05
58967;BME280;44744;51.894;5.080;2024-01-15T02:57:08;100433.12;;;0.49;96.96
58967;BME280;44744;51.894;5.080;2024-01-15T03:02:08;100427.33;;;0.43;96.86
58967;BME280;44744;51.894;5.080;2024-01-15T03:07:09;100426.37;;;0.39;96.90
58967;BME280;44744;51.894;5.080;2024-01-15T03:12:11;100423.77;;;0.38;97.03
58967;BME280;44744;51.894;5.080;2024-01-15T03:17:11;100421.31;;;0.39;97.16
58967;BME280;44744;51.894;5.080;2024-01-15T03:22:12;100420.99;;;0.37;97.12
58967;BME280;44744;51.894;5.080;2024-01-15T03:27:13;100419.31;;;0.34;97.01
58967;BME280;44744;51.894;5.080;2024-01-15T03:32:13;100421.98;;;0.30;96.97
58967;BME280;44744;51.894;5.080;2024-01-15T03:37:14;100422.56;;;0.27;96.88
58967;BME280;44744;51.894;5.080;2024-01-15T03:42:14;100412.02;;;0.25;96.89
58967;BME280;44744;51.894;5.080;2024-01-15T03:47:14;100416.37;;;0.24;96.93
58967;BME280;44744;51.894;5.080;2024-01-15T03:52:15;100418.30;;;0.24;96.78
58967;BME280;44744;51.894;5.080;2024-01-15T03:57:16;100404.73;;;0.24;96.95
58967;BME280;44744;51.894;5.080;2024-01-15T04:02:16;100401.23;;;0.25;96.84
58967;BME280;44744;51.894;5.080;2024-01-15T04:07:16;100396.48;;;0.27;96.94
58967;BME280;44744;51.894;5.080;2024-01-15T04:12:17;100391.77;;;0.29;97.01
58967;BME280;44744;51.894;5.080;2024-01-15T04:17:17;100393.48;;;0.30;96.89
58967;BME280;44744;51.894;5.080;2024-01-15T04:22:18;100402.34;;;0.30;97.38
58967;BME280;44744;51.894;5.080;2024-01-15T04:27:18;100399.98;;;0.26;98.18
58967;BME280;44744;51.894;5.080;2024-01-15T04:32:19;100395.31;;;0.25;98.66
58967;BME280;44744;51.894;5.080;2024-01-15T04:37:19;100384.73;;;0.23;99.10
58967;BME280;44744;51.894;5.080;2024-01-15T04:42:20;100390.86;;;0.21;99.37
58967;BME280;44744;51.894;5.080;2024-01-15T04:47:21;100404.62;;;0.21;99.83
58967;BME280;44744;51.894;5.080;2024-01-15T04:52:21;100394.63;;;0.15;99.65
58967;BME280;44744;51.894;5.080;2024-01-15T04:57:22;100382.60;;;0.08;99.66
58967;BME280;44744;51.894;5.080;2024-01-15T05:02:22;100365.60;;;0.06;99.74
58967;BME280;44744;51.894;5.080;2024-01-15T05:07:23;100357.56;;;0.08;99.87
58967;BME280;44744;51.894;5.080;2024-01-15T05:12:23;100353.33;;;0.10;99.94
58967;BME280;44744;51.894;5.080;2024-01-15T05:17:24;100349.97;;;0.13;99.96
58967;BME280;44744;51.894;5.080;2024-01-15T05:22:24;100348.33;;;0.18;99.99
58967;BME280;44744;51.894;5.080;2024-01-15T05:27:25;100353.73;;;0.26;100.00
58967;BME280;44744;51.894;5.080;2024-01-15T05:32:25;100355.92;;;0.29;100.00
58967;BME280;44744;51.894;5.080;2024-01-15T05:37:26;100349.32;;;0.29;100.00
58967;BME280;44744;51.894;5.080;2024-01-15T05:42:26;100337.73;;;0.26;100.00
58967;BME280;44744;51.894;5.080;2024-01-15T05:47:27;100334.00;;;0.20;100.00
58967;BME280;44744;51.894;5.080;2024-01-15T05:52:27;100326.35;;;0.11;100.00
58967;BME280;44744;51.894;5.080;2024-01-15T05:57:27;100324.22;;;0.06;100.00
58967;BME280;44744;51.894;5.080;2024-01-15T06:02:28;100328.22;;;0.05;100.00
58967;BME280;44744;51.894;5.080;2024-01-15T06:07:28;100333.11;;;0.04;100.00
58967;BME280;44744;51.894;5.080;2024-01-15T06:12:29;100337.81;;;0.04;100.00
58967;BME280;44744;51.894;5.080;2024-01-15T06:17:29;100341.56;;;0.07;100.00
58967;BME280;44744;51.894;5.080;2024-01-15T06:22:29;100332.59;;;0.04;100.00
58967;BME280;44744;51.894;5.080;2024-01-15T06:27:30;100323.80;;;0.01;100.00
58967;BME280;44744;51.894;5.080;2024-01-15T06:32:30;100317.40;;;-0.02;100.00
58967;BME280;44744;51.894;5.080;2024-01-15T06:37:31;100309.91;;;-0.01;100.00
58967;BME280;44744;51.894;5.080;2024-01-15T06:42:32;100307.66;;;-0.00;100.00
58967;BME280;44744;51.894;5.080;2024-01-15T06:47:33;100326.90;;;0.02;100.00
58967;BME280;44744;51.894;5.080;2024-01-15T06:52:33;100346.41;;;0.00;100.00
58967;BME280;44744;51.894;5.080;2024-01-15T06:57:34;100348.58;;;-0.04;100.00
58967;BME280;44744;51.894;5.080;2024-01-15T07:02:37;100343.20;;;-0.05;100.00
58967;BME280;44744;51.894;5.080;2024-01-15T07:07:38;100338.84;;;-0.04;100.00
58967;BME280;44744;51.894;5.080;2024-01-15T07:12:38;100335.87;;;-0.04;100.00
58967;BME280;44744;51.894;5.080;2024-01-15T07:18:04;100330.08;;;-0.01;100.00
58967;BME280;44744;51.894;5.080;2024-01-15T07:23:08;100321.92;;;0.07;100.00
58967;BME280;44744;51.894;5.080;2024-01-15T07:28:09;100335.68;;;0.15;100.00
58967;BME280;44744;51.894;5.080;2024-01-15T07:33:09;100352.02;;;0.16;100.00
58967;BME280;44744;51.894;5.080;2024-01-15T07:38:12;100356.44;;;0.02;100.00
58967;BME280;44744;51.894;5.080;2024-01-15T07:43:13;100364.02;;;-0.13;100.00
58967;BME280;44744;51.894;5.080;2024-01-15T07:48:13;100365.23;;;-0.31;100.00
58967;BME280;44744;51.894;5.080;2024-01-15T07:53:14;100353.83;;;-0.45;100.00
58967;BME280;44744;51.894;5.080;2024-01-15T07:58:14;100359.95;;;-0.48;100.00
58967;BME280;44744;51.894;5.080;2024-01-15T08:03:15;100371.23;;;-0.47;100.00
58967;BME280;44744;51.894;5.080;2024-01-15T08:08:15;100369.44;;;-0.43;100.00
58967;BME280;44744;51.894;5.080;2024-01-15T08:13:15;100362.80;;;-0.41;100.00
58967;BME280;44744;51.894;5.080;2024-01-15T08:18:16;100375.60;;;-0.39;100.00
58967;BME280;44744;51.894;5.080;2024-01-15T08:23:16;100370.38;;;-0.38;100.00
58967;BME280;44744;51.894;5.080;2024-01-15T08:28:17;100382.17;;;-0.36;100.00
58967;BME280;44744;51.894;5.080;2024-01-15T08:33:17;100365.40;;;-0.31;100.00
58967;BME280;44744;51.894;5.080;2024-01-15T08:38:19;100359.20;;;-0.24;100.00
58967;BME280;44744;51.894;5.080;2024-01-15T08:43:19;100354.05;;;-0.19;100.00
58967;BME280;44744;51.894;5.080;2024-01-15T08:48:20;100354.63;;;-0.12;100.00
58967;BME280;44744;51.894;5.080;2024-01-15T08:53:20;100351.26;;;-0.09;100.00
58967;BME280;44744;51.894;5.080;2024-01-15T08:58:23;100348.77;;;-0.05;100.00
58967;BME280;44744;51.894;5.080;2024-01-15T09:03:23;100349.44;;;-0.03;100.00
58967;BME280;44744;51.894;5.080;2024-01-15T09:08:24;100349.38;;;-0.01;100.00
58967;BME280;44744;51.894;5.080;2024-01-15T09:13:25;100344.56;;;0.06;100.00
58967;BME280;44744;51.894;5.080;2024-01-15T09:18:25;100348.89;;;0.15;100.00
58967;BME280;44744;51.894;5.080;2024-01-15T09:23:25;100349.83;;;0.21;100.00
58967;BME280;44744;51.894;5.080;2024-01-15T09:28:26;100362.05;;;0.27;100.00
58967;BME280;44744;51.894;5.080;2024-01-15T09:33:26;100383.88;;;0.31;100.00
58967;BME280;44744;51.894;5.080;2024-01-15T09:38:26;100400.61;;;0.29;100.00
58967;BME280;44744;51.894;5.080;2024-01-15T09:43:27;100394.20;;;0.20;100.00
58967;BME280;44744;51.894;5.080;2024-01-15T09:48:27;100385.88;;;0.09;100.00
58967;BME280;44744;51.894;5.080;2024-01-15T09:53:28;100386.77;;;-0.02;100.00
58967;BME280;44744;51.894;5.080;2024-01-15T09:58:29;100376.45;;;-0.07;100.00
58967;BME280;44744;51.894;5.080;2024-01-15T10:03:30;100370.20;;;-0.08;100.00
58967;BME280;44744;51.894;5.080;2024-01-15T10:08:31;100383.39;;;-0.07;100.00
58967;BME280;44744;51.894;5.080;2024-01-15T10:13:33;100373.45;;;-0.04;100.00
58967;BME280;44744;51.894;5.080;2024-01-15T10:18:34;100370.42;;;-0.01;100.00
58967;BME280;44744;51.894;5.080;2024-01-15T10:23:36;100372.59;;;0.04;100.00
58967;BME280;44744;51.894;5.080;2024-01-15T10:28:36;100372.29;;;0.11;100.00
58967;BME280;44744;51.894;5.080;2024-01-15T10:33:36;100383.12;;;0.16;100.00
58967;BME280;44744;51.894;5.080;2024-01-15T10:38:58;100382.52;;;0.21;100.00
58967;BME280;44744;51.894;5.080;2024-01-15T10:44:12;100380.88;;;0.24;100.00
58967;BME280;44744;51.894;5.080;2024-01-15T10:49:13;100377.46;;;0.30;100.00
58967;BME280;44744;51.894;5.080;2024-01-15T10:54:14;100382.23;;;0.36;100.00
58967;BME280;44744;51.894;5.080;2024-01-15T10:59:15;100385.77;;;0.41;100.00
58967;BME280;44744;51.894;5.080;2024-01-15T11:04:16;100387.73;;;0.47;100.00
58967;BME280;44744;51.894;5.080;2024-01-15T11:09:17;100395.44;;;0.54;100.00
58967;BME280;44744;51.894;5.080;2024-01-15T11:15:00;100395.99;;;0.52;100.00
58967;BME280;44744;51.894;5.080;2024-01-15T11:20:06;100404.76;;;0.49;100.00
58967;BME280;44744;51.894;5.080;2024-01-15T11:25:13;100412.00;;;0.44;100.00
58967;BME280;44744;51.894;5.080;2024-01-15T11:30:14;100408.65;;;0.28;100.00
58967;BME280;44744;51.894;5.080;2024-01-15T11:35:17;100422.10;;;0.15;100.00
58967;BME280;44744;51.894;5.080;2024-01-15T11:45:33;100418.17;;;0.12;100.00
58967;BME280;44744;51.894;5.080;2024-01-15T11:50:48;100433.66;;;0.20;100.00
58967;BME280;44744;51.894;5.080;2024-01-15T11:56:00;100444.64;;;0.20;100.00
58967;BME280;44744;51.894;5.080;2024-01-15T12:01:02;100443.54;;;0.13;100.00
58967;BME280;44744;51.894;5.080;2024-01-15T12:06:05;100442.85;;;0.02;100.00
58967;BME280;44744;51.894;5.080;2024-01-15T12:11:07;100442.55;;;-0.10;100.00
58967;BME280;44744;51.894;5.080;2024-01-15T12:16:11;100445.92;;;-0.13;100.00
58967;BME280;44744;51.894;5.080;2024-01-15T12:21:13;100439.16;;;-0.15;100.00
58967;BME280;44744;51.894;5.080;2024-01-15T12:26:14;100437.54;;;-0.11;100.00
58967;BME280;44744;51.894;5.080;2024-01-15T12:31:16;100444.16;;;-0.03;100.00
58967;BME280;44744;51.894;5.080;2024-01-15T12:36:21;100452.67;;;0.07;100.00
58967;BME280;44744;51.894;5.080;2024-01-15T12:41:22;100456.07;;;0.12;100.00
58967;BME280;44744;51.894;5.080;2024-01-15T12:46:23;100440.25;;;0.12;100.00
58967;BME280;44744;51.894;5.080;2024-01-15T12:51:26;100447.32;;;0.15;100.00
58967;BME280;44744;51.894;5.080;2024-01-15T12:56:27;100458.73;;;0.19;100.00
58967;BME280;44744;51.894;5.080;2024-01-15T13:01:28;100462.94;;;0.27;100.00
58967;BME280;44744;51.894;5.080;2024-01-15T13:06:28;100464.02;;;0.35;100.00
58967;BME280;44744;51.894;5.080;2024-01-15T13:11:29;100474.14;;;0.41;100.00
58967;BME280;44744;51.894;5.080;2024-01-15T13:16:30;100472.88;;;0.44;100.00
58967;BME280;44744;51.894;5.080;2024-01-15T13:21:31;100474.59;;;0.45;100.00
58967;BME280;44744;51.894;5.080;2024-01-15T13:26:35;100472.83;;;0.46;100.00
58967;BME280;44744;51.894;5.080;2024-01-15T13:31:38;100470.29;;;0.53;100.00
58967;BME280;44744;51.894;5.080;2024-01-15T13:36:39;100465.60;;;0.61;100.00
58967;BME280;44744;51.894;5.080;2024-01-15T13:41:39;100471.16;;;0.69;100.00
58967;BME280;44744;51.894;5.080;2024-01-15T13:46:40;100488.33;;;0.81;100.00
58967;BME280;44744;51.894;5.080;2024-01-15T13:51:40;100506.73;;;0.84;100.00
58967;BME280;44744;51.894;5.080;2024-01-15T13:56:41;100495.19;;;0.78;100.00
58967;BME280;44744;51.894;5.080;2024-01-15T14:01:42;100496.20;;;0.71;99.58
58967;BME280;44744;51.894;5.080;2024-01-15T14:06:43;100503.84;;;0.63;98.46
58967;BME280;44744;51.894;5.080;2024-01-15T14:11:43;100508.83;;;0.57;98.07
58967;BME280;44744;51.894;5.080;2024-01-15T14:16:43;100511.16;;;0.53;98.25
58967;BME280;44744;51.894;5.080;2024-01-15T14:21:47;100516.96;;;0.50;98.50
58967;BME280;44744;51.894;5.080;2024-01-15T14:26:47;100531.27;;;0.48;98.46
58967;BME280;44744;51.894;5.080;2024-01-15T14:31:48;100550.05;;;0.48;97.85
58967;BME280;44744;51.894;5.080;2024-01-15T14:36:49;100547.34;;;0.45;97.29
58967;BME280;44744;51.894;5.080;2024-01-15T14:41:51;100541.80;;;0.43;97.04
58967;BME280;44744;51.894;5.080;2024-01-15T14:46:51;100543.85;;;0.44;97.41
58967;BME280;44744;51.894;5.080;2024-01-15T14:51:52;100549.56;;;0.47;97.89
58967;BME280;44744;51.894;5.080;2024-01-15T14:56:52;100552.16;;;0.48;98.23
58967;BME280;44744;51.894;5.080;2024-01-15T15:01:53;100549.71;;;0.48;98.54
58967;BME280;44744;51.894;5.080;2024-01-15T15:06:54;100560.27;;;0.51;98.79
58967;BME280;44744;51.894;5.080;2024-01-15T15:11:57;100571.70;;;0.54;98.79
58967;BME280;44744;51.894;5.080;2024-01-15T15:16:57;100583.37;;;0.54;98.71
58967;BME280;44744;51.894;5.080;2024-01-15T15:21:59;100577.95;;;0.56;98.62
58967;BME280;44744;51.894;5.080;2024-01-15T15:26:59;100599.23;;;0.62;97.14
58967;BME280;44744;51.894;5.080;2024-01-15T15:32:01;100604.00;;;0.68;94.03
58967;BME280;44744;51.894;5.080;2024-01-15T15:37:02;100602.94;;;0.59;93.85
58967;BME280;44744;51.894;5.080;2024-01-15T15:42:03;100601.16;;;0.51;93.64
58967;BME280;44744;51.894;5.080;2024-01-15T15:47:03;100601.96;;;0.45;91.78
58967;BME280;44744;51.894;5.080;2024-01-15T15:52:04;100607.85;;;0.47;90.41
58967;BME280;44744;51.894;5.080;2024-01-15T15:57:04;100621.04;;;0.48;90.97
58967;BME280;44744;51.894;5.080;2024-01-15T16:02:08;100633.98;;;0.45;91.45
58967;BME280;44744;51.894;5.080;2024-01-15T16:07:12;100650.88;;;0.43;91.21
58967;BME280;44744;51.894;5.080;2024-01-15T16:12:20;100663.08;;;0.42;91.32
58967;BME280;44744;51.894;5.080;2024-01-15T16:17:20;100666.55;;;0.43;91.71
58967;BME280;44744;51.894;5.080;2024-01-15T16:22:23;100664.12;;;0.43;92.09
58967;BME280;44744;51.894;5.080;2024-01-15T16:27:26;100677.86;;;0.43;92.16
58967;BME280;44744;51.894;5.080;2024-01-15T16:32:34;100686.73;;;0.43;92.31
58967;BME280;44744;51.894;5.080;2024-01-15T16:37:35;100687.81;;;0.41;92.65
58967;BME280;44744;51.894;5.080;2024-01-15T16:42:36;100697.24;;;0.38;93.02
58967;BME280;44744;51.894;5.080;2024-01-15T16:47:37;100705.98;;;0.36;93.22
58967;BME280;44744;51.894;5.080;2024-01-15T16:52:38;100707.94;;;0.33;93.50
58967;BME280;44744;51.894;5.080;2024-01-15T16:57:38;100727.72;;;0.37;94.03
58967;BME280;44744;51.894;5.080;2024-01-15T17:02:39;100726.42;;;0.43;94.42
58967;BME280;44744;51.894;5.080;2024-01-15T17:07:39;100733.13;;;0.47;94.40
58967;BME280;44744;51.894;5.080;2024-01-15T17:12:40;100747.25;;;0.45;94.29
58967;BME280;44744;51.894;5.080;2024-01-15T17:17:42;100772.50;;;0.45;94.52
58967;BME280;44744;51.894;5.080;2024-01-15T17:22:43;100763.52;;;0.39;94.60
58967;BME280;44744;51.894;5.080;2024-01-15T17:27:43;100774.95;;;0.30;95.52
58967;BME280;44744;51.894;5.080;2024-01-15T17:32:44;100784.13;;;0.20;96.25
58967;BME280;44744;51.894;5.080;2024-01-15T17:37:44;100795.14;;;0.15;96.92
58967;BME280;44744;51.894;5.080;2024-01-15T17:42:45;100783.19;;;0.13;97.52
58967;BME280;44744;51.894;5.080;2024-01-15T17:47:48;100779.02;;;0.12;97.89
58967;BME280;44744;51.894;5.080;2024-01-15T17:52:49;100774.86;;;0.11;98.18
58967;BME280;44744;51.894;5.080;2024-01-15T17:57:50;100773.16;;;0.07;98.32
58967;BME280;44744;51.894;5.080;2024-01-15T18:02:51;100775.27;;;0.06;98.20
58967;BME280;44744;51.894;5.080;2024-01-15T18:07:53;100785.19;;;0.06;98.17
58967;BME280;44744;51.894;5.080;2024-01-15T18:12:54;100790.23;;;0.05;98.26
58967;BME280;44744;51.894;5.080;2024-01-15T18:17:54;100795.61;;;0.07;98.22
58967;BME280;44744;51.894;5.080;2024-01-15T18:22:55;100800.50;;;0.05;98.25
58967;BME280;44744;51.894;5.080;2024-01-15T18:27:56;100810.80;;;0.02;98.23
58967;BME280;44744;51.894;5.080;2024-01-15T18:32:56;100827.21;;;-0.05;98.31
58967;BME280;44744;51.894;5.080;2024-01-15T18:37:57;100843.13;;;-0.12;98.49
58967;BME280;44744;51.894;5.080;2024-01-15T18:42:58;100849.95;;;-0.18;98.93
58967;BME280;44744;51.894;5.080;2024-01-15T18:47:58;100837.49;;;-0.23;99.66
58967;BME280;44744;51.894;5.080;2024-01-15T18:52:58;100825.75;;;-0.29;100.00
58967;BME280;44744;51.894;5.080;2024-01-15T18:58:08;100820.41;;;-0.34;100.00
58967;BME280;44744;51.894;5.080;2024-01-15T19:03:08;100830.88;;;-0.39;100.00
58967;BME280;44744;51.894;5.080;2024-01-15T19:08:09;100831.26;;;-0.42;100.00
58967;BME280;44744;51.894;5.080;2024-01-15T19:13:10;100834.40;;;-0.44;100.00
58967;BME280;44744;51.894;5.080;2024-01-15T19:18:12;100838.08;;;-0.45;100.00
58967;BME280;44744;51.894;5.080;2024-01-15T19:23:14;100846.59;;;-0.45;100.00
58967;BME280;44744;51.894;5.080;2024-01-15T19:28:14;100853.54;;;-0.47;100.00
58967;BME280;44744;51.894;5.080;2024-01-15T19:33:17;100866.25;;;-0.50;100.00
58967;BME280;44744;51.894;5.080;2024-01-15T19:38:18;100883.46;;;-0.52;100.00
58967;BME280;44744;51.894;5.080;2024-01-15T19:43:18;100881.02;;;-0.50;100.00
58967;BME280;44744;51.894;5.080;2024-01-15T19:48:18;100895.55;;;-0.43;100.00
58967;BME280;44744;51.894;5.080;2024-01-15T19:53:21;100894.98;;;-0.38;100.00
58967;BME280;44744;51.894;5.080;2024-01-15T19:58:31;100897.59;;;-0.36;100.00
58967;BME280;44744;51.894;5.080;2024-01-15T20:03:35;100892.88;;;-0.35;100.00
58967;BME280;44744;51.894;5.080;2024-01-15T20:08:36;100907.31;;;-0.36;100.00
58967;BME280;44744;51.894;5.080;2024-01-15T20:13:38;100915.14;;;-0.36;100.00
58967;BME280;44744;51.894;5.080;2024-01-15T20:18:41;100918.45;;;-0.37;100.00
58967;BME280;44744;51.894;5.080;2024-01-15T20:23:41;100919.84;;;-0.38;100.00
58967;BME280;44744;51.894;5.080;2024-01-15T20:28:42;100923.31;;;-0.37;100.00
58967;BME280;44744;51.894;5.080;2024-01-15T20:33:46;100925.22;;;-0.37;100.00
58967;BME280;44744;51.894;5.080;2024-01-15T20:38:47;100933.92;;;-0.39;100.00
58967;BME280;44744;51.894;5.080;2024-01-15T20:43:47;100931.88;;;-0.43;100.00
58967;BME280;44744;51.894;5.080;2024-01-15T20:48:48;100941.45;;;-0.45;100.00
58967;BME280;44744;51.894;5.080;2024-01-15T20:53:48;100956.40;;;-0.45;100.00
58967;BME280;44744;51.894;5.080;2024-01-15T20:58:49;100962.29;;;-0.43;100.00
58967;BME280;44744;51.894;5.080;2024-01-15T21:03:49;100970.61;;;-0.41;100.00
58967;BME280;44744;51.894;5.080;2024-01-15T21:08:50;100961.05;;;-0.40;100.00
58967;BME280;44744;51.894;5.080;2024-01-15T21:13:50;100949.07;;;-0.42;100.00
58967;BME280;44744;51.894;5.080;2024-01-15T21:18:51;100942.83;;;-0.43;100.00
58967;BME280;44744;51.894;5.080;2024-01-15T21:23:52;100949.61;;;-0.45;100.00
58967;BME280;44744;51.894;5.080;2024-01-15T21:28:52;100951.71;;;-0.47;100.00
58967;BME280;44744;51.894;5.080;2024-01-15T21:33:52;100956.96;;;-0.51;100.00
58967;BME280;44744;51.894;5.080;2024-01-15T21:38:53;100962.39;;;-0.59;100.00
58967;BME280;44744;51.894;5.080;2024-01-15T21:43:53;100969.38;;;-0.63;100.00
58967;BME280;44744;51.894;5.080;2024-01-15T21:48:54;100973.22;;;-0.67;100.00
58967;BME280;44744;51.894;5.080;2024-01-15T21:53:54;100977.41;;;-0.70;100.00
58967;BME280;44744;51.894;5.080;2024-01-15T21:58:55;100976.55;;;-0.71;100.00
58967;BME280;44744;51.894;5.080;2024-01-15T22:03:56;100974.84;;;-0.73;100.00
58967;BME280;44744;51.894;5.080;2024-01-15T22:08:58;100969.45;;;-0.74;100.00
58967;BME280;44744;51.894;5.080;2024-01-15T22:13:58;100964.23;;;-0.72;100.00
58967;BME280;44744;51.894;5.080;2024-01-15T22:19:02;100967.70;;;-0.72;100.00
58967;BME280;44744;51.894;5.080;2024-01-15T22:24:02;100970.66;;;-0.75;100.00
58967;BME280;44744;51.894;5.080;2024-01-15T22:29:03;100982.66;;;-0.76;100.00
58967;BME280;44744;51.894;5.080;2024-01-15T22:34:04;101003.67;;;-0.78;100.00
58967;BME280;44744;51.894;5.080;2024-01-15T22:39:04;101014.98;;;-0.79;100.00
58967;BME280;44744;51.894;5.080;2024-01-15T22:44:05;101023.14;;;-0.78;100.00
58967;BME280;44744;51.894;5.080;2024-01-15T22:49:07;101014.61;;;-0.75;100.00
58967;BME280;44744;51.894;5.080;2024-01-15T22:54:07;101011.13;;;-0.72;100.00
58967;BME280;44744;51.894;5.080;2024-01-15T22:59:08;101022.57;;;-0.68;100.00
58967;BME280;44744;51.894;5.080;2024-01-15T23:04:08;101027.08;;;-0.67;100.00
58967;BME280;44744;51.894;5.080;2024-01-15T23:09:09;101034.02;;;-0.67;100.00
58967;BME280;44744;51.894;5.080;2024-01-15T23:14:09;101035.05;;;-0.67;100.00
58967;BME280;44744;51.894;5.080;2024-01-15T23:19:12;101038.36;;;-0.66;100.00
58967;BME280;44744;51.894;5.080;2024-01-15T23:24:12;101040.61;;;-0.67;100.00
58967;BME280;44744;51.894;5.080;2024-01-15T23:29:13;101032.48;;;-0.68;100.00
58967;BME280;44744;51.894;5.080;2024-01-15T23:34:13;101026.56;;;-0.70;100.00
58967;BME280;44744;51.894;5.080;2024-01-15T23:39:14;101030.02;;;-0.67;100.00
58967;BME280;44744;51.894;5.080;2024-01-15T23:44:14;101035.75;;;-0.67;100.00
58967;BME280;44744;51.894;5.080;2024-01-15T23:49:15;101041.67;;;-0.68;100.00
58967;BME280;44744;51.894;5.080;2024-01-15T23:54:15;101047.23;;;-0.69;100.00
58967;BME280;44744;51.894;5.080;2024-01-15T23:59:16;101048.11;;;-0.71;100.00
